createdAt,value
2023-09-06T00:03:01.923Z,72.12
2023-09-06T00:06:05.823Z,72.07
2023-09-06T00:09:08.185Z,71.42
2023-09-06T00:12:10.921Z,71.22
2023-09-06T00:15:16.451Z,71.64
2023-09-06T00:18:19.107Z,72.44
2023-09-06T00:21:23.223Z,72.61
2023-09-06T00:24:25.904Z,72.73
2023-09-06T00:27:29.502Z,72.65
2023-09-06T00:30:32.663Z,72.54
2023-09-06T00:33:36.905Z,72.35
2023-09-06T00:36:39.715Z,72.25
2023-09-06T00:39:42.696Z,72.28
2023-09-06T00:43:01.199Z,71.94
2023-09-06T00:46:08.871Z,72.40
2023-09-06T00:49:11.958Z,72.66
2023-09-06T00:52:17.732Z,73.51
2023-09-06T00:55:21.647Z,74.22
2023-09-06T00:58:24.195Z,74.33
2023-09-06T01:01:26.992Z,74.09
2023-09-06T01:04:29.512Z,74.18
2023-09-06T01:07:38.202Z,74.10
2023-09-06T01:10:40.610Z,73.41
2023-09-06T01:13:43.292Z,73.54
2023-09-06T01:16:48.604Z,73.54
2023-09-06T01:20:25.272Z,72.97
2023-09-06T01:23:31.749Z,72.89
2023-09-06T01:26:35.495Z,72.98
2023-09-06T01:29:37.882Z,73.63
2023-09-06T01:32:42.143Z,74.17
2023-09-06T01:35:44.771Z,74.26
2023-09-06T01:38:47.511Z,74.55
2023-09-06T01:41:50.917Z,74.86
2023-09-06T01:44:55.168Z,74.57
2023-09-06T01:47:57.628Z,75.06
2023-09-06T01:51:00.321Z,75.15
2023-09-06T01:54:05.593Z,75.07
2023-09-06T01:57:09.587Z,75.49
2023-09-06T02:00:27.722Z,75.57
2023-09-06T02:03:30.454Z,75.68
2023-09-06T02:06:32.979Z,75.85
2023-09-06T02:09:35.646Z,76.27
2023-09-06T02:12:39.391Z,76.17
2023-09-06T02:15:42.652Z,76.28
2023-09-06T02:18:45.217Z,76.59
2023-09-06T02:21:48.060Z,76.35
2023-09-06T02:24:50.436Z,75.35
2023-09-06T02:27:53.996Z,75.57
2023-09-06T02:30:56.458Z,75.84
2023-09-06T02:33:59.164Z,76.34
2023-09-06T02:37:02.054Z,76.79
2023-09-06T02:40:10.373Z,77.30
2023-09-06T02:43:14.917Z,78.01
2023-09-06T02:46:17.859Z,77.98
2023-09-06T02:49:20.246Z,78.07
2023-09-06T02:52:31.675Z,78.42
2023-09-06T02:55:36.599Z,78.66
2023-09-06T02:58:40.364Z,78.99
2023-09-06T03:01:46.389Z,78.35
2023-09-06T03:04:56.112Z,78.86
2023-09-06T03:07:58.935Z,79.17
2023-09-06T03:11:01.999Z,78.80
2023-09-06T03:14:05.788Z,78.67
2023-09-06T03:17:09.695Z,79.05
2023-09-06T03:20:32.664Z,79.34
2023-09-06T03:23:37.091Z,79.46
2023-09-06T03:26:44.868Z,79.73
2023-09-06T03:29:52.714Z,79.37
2023-09-06T03:32:55.980Z,79.83
2023-09-06T03:35:58.911Z,80.45
2023-09-06T03:39:02.163Z,79.75
2023-09-06T03:42:09.677Z,79.59
2023-09-06T03:45:16.715Z,79.73
2023-09-06T03:48:22.126Z,79.81
2023-09-06T03:51:25.786Z,79.93
2023-09-06T03:54:28.565Z,80.26
2023-09-06T03:57:30.885Z,80.10
2023-09-06T04:00:33.914Z,79.98
2023-09-06T04:03:39.730Z,79.98
2023-09-06T04:06:45.658Z,79.86
2023-09-06T04:09:48.781Z,79.95
2023-09-06T04:12:52.478Z,79.73
2023-09-06T04:15:55.702Z,79.65
2023-09-06T04:18:59.614Z,79.82
2023-09-06T04:22:03.169Z,79.69
2023-09-06T04:25:07.872Z,79.55
2023-09-06T04:28:14.853Z,79.83
2023-09-06T04:31:20.225Z,79.88
2023-09-06T04:34:23.588Z,79.98
2023-09-06T04:37:26.069Z,80.12
2023-09-06T04:40:30.509Z,79.86
2023-09-06T04:43:33.332Z,80.09
2023-09-06T04:46:36.237Z,80.33
2023-09-06T04:49:40.594Z,80.30
2023-09-06T04:52:49.872Z,80.19
2023-09-06T04:55:54.501Z,79.86
2023-09-06T04:58:57.620Z,79.20
2023-09-06T05:05:03.076Z,79.05
2023-09-06T05:08:06.462Z,79.56
2023-09-06T05:11:09.178Z,79.58
2023-09-06T05:14:12.098Z,79.44
2023-09-06T05:17:16.548Z,79.45
2023-09-06T05:20:26.560Z,79.56
2023-09-06T05:23:29.570Z,79.22
2023-09-06T05:26:34.790Z,78.98
2023-09-06T05:29:38.069Z,78.45
2023-09-06T05:32:40.627Z,78.10
2023-09-06T05:35:44.837Z,78.19
2023-09-06T05:38:47.600Z,78.12
2023-09-06T05:41:51.947Z,77.99
2023-09-06T05:44:54.411Z,78.20
2023-09-06T05:47:57.786Z,77.96
2023-09-06T05:51:01.067Z,77.70
2023-09-06T05:54:04.242Z,77.22
2023-09-06T05:57:07.645Z,76.65
2023-09-06T06:00:16.882Z,74.16
2023-09-06T06:03:21.238Z,72.29
2023-09-06T06:06:23.947Z,70.21
2023-09-06T06:09:29.521Z,68.69
2023-09-06T06:12:34.009Z,67.38
2023-09-06T06:15:36.713Z,66.39
2023-09-06T06:18:39.177Z,65.87
2023-09-06T06:21:42.024Z,65.42
2023-09-06T06:24:47.322Z,64.90
2023-09-06T06:27:53.222Z,64.43
2023-09-06T06:30:55.805Z,63.73
2023-09-06T06:34:00.575Z,62.86
2023-09-06T06:37:02.972Z,61.95
2023-09-06T06:40:06.582Z,59.37
2023-09-06T06:43:09.025Z,59.11
2023-09-06T06:46:25.569Z,58.04
2023-09-06T06:49:28.498Z,56.78
2023-09-06T06:52:36.272Z,56.50
2023-09-06T06:55:39.376Z,56.26
2023-09-06T06:58:42.190Z,55.42
2023-09-06T07:01:44.639Z,55.45
2023-09-06T07:04:47.559Z,55.05
2023-09-06T07:07:50.063Z,55.87
2023-09-06T07:10:52.975Z,56.11
2023-09-06T07:13:55.485Z,55.52
2023-09-06T07:17:00.189Z,55.41
2023-09-06T07:20:03.509Z,55.12
2023-09-06T07:23:06.311Z,54.72
2023-09-06T07:26:08.927Z,54.40
2023-09-06T07:29:11.853Z,53.38
2023-09-06T07:32:14.511Z,53.00
2023-09-06T07:35:17.334Z,52.74
2023-09-06T07:38:19.764Z,52.86
2023-09-06T07:41:23.214Z,52.38
2023-09-06T07:44:25.736Z,52.51
2023-09-06T07:47:28.666Z,53.00
2023-09-06T07:50:32.738Z,53.00
2023-09-06T07:53:35.674Z,52.25
2023-09-06T07:56:39.456Z,51.85
2023-09-06T07:59:42.227Z,52.13
2023-09-06T08:02:44.657Z,51.76
2023-09-06T08:05:48.084Z,51.60
2023-09-06T08:08:50.783Z,51.76
2023-09-06T08:11:53.669Z,51.66
2023-09-06T08:14:56.191Z,51.47
2023-09-06T08:18:00.194Z,51.27
2023-09-06T08:21:02.936Z,51.21
2023-09-06T08:24:05.952Z,50.82
2023-09-06T08:27:08.479Z,50.54
2023-09-06T08:30:14.081Z,50.86
2023-09-06T08:33:16.755Z,50.78
2023-09-06T08:36:19.715Z,50.42
2023-09-06T08:39:22.359Z,50.52
2023-09-06T08:42:28.814Z,49.98
2023-09-06T08:45:31.746Z,49.79
2023-09-06T08:48:35.113Z,49.06
2023-09-06T08:51:38.954Z,48.56
2023-09-06T08:54:45.469Z,48.63
2023-09-06T08:57:48.587Z,48.24
2023-09-06T09:00:51.652Z,48.06
2023-09-06T09:03:55.008Z,48.22
2023-09-06T09:06:59.186Z,48.29
2023-09-06T09:10:08.532Z,48.55
2023-09-06T09:13:13.469Z,47.58
2023-09-06T09:16:17.792Z,47.29
2023-09-06T09:19:22.718Z,47.06
2023-09-06T09:22:31.570Z,46.90
2023-09-06T09:25:34.575Z,46.74
2023-09-06T09:28:37.040Z,46.21
2023-09-06T09:31:41.384Z,44.75
2023-09-06T09:34:46.186Z,44.97
2023-09-06T09:37:52.629Z,44.57
2023-09-06T09:41:07.812Z,43.98
2023-09-06T09:44:15.297Z,44.03
2023-09-06T09:47:39.784Z,43.26
2023-09-06T09:50:42.816Z,43.88
2023-09-06T09:53:46.197Z,43.39
2023-09-06T09:57:08.046Z,43.60
2023-09-06T10:00:13.664Z,42.55
2023-09-06T10:03:16.809Z,42.33
2023-09-06T10:06:21.046Z,42.01
2023-09-06T10:09:23.901Z,41.54
2023-09-06T10:12:29.219Z,41.12
2023-09-06T10:15:33.995Z,41.76
2023-09-06T10:18:38.304Z,40.88
2023-09-06T10:21:43.543Z,40.52
2023-09-06T10:24:52.735Z,40.19
2023-09-06T10:28:00.589Z,40.09
2023-09-06T10:31:10.074Z,39.59
2023-09-06T10:34:14.624Z,38.50
2023-09-06T10:37:17.479Z,38.72
2023-09-06T10:40:20.168Z,38.34
2023-09-06T10:43:32.687Z,37.76
2023-09-06T10:46:38.594Z,37.25
2023-09-06T10:50:13.392Z,37.01
2023-09-06T10:53:20.202Z,37.81
2023-09-06T10:56:29.357Z,37.39
2023-09-06T10:59:32.539Z,36.90
2023-09-06T11:02:36.528Z,37.05
2023-09-06T11:05:41.279Z,36.17
2023-09-06T11:08:44.110Z,35.79
2023-09-06T11:11:52.439Z,36.02
2023-09-06T11:14:56.062Z,35.91
2023-09-06T11:18:01.507Z,34.17
2023-09-06T11:21:05.956Z,33.98
2023-09-06T11:24:08.479Z,33.44
2023-09-06T11:27:26.039Z,32.59
2023-09-06T11:30:32.769Z,32.04
2023-09-06T11:33:37.908Z,32.27
2023-09-06T11:36:40.576Z,32.23
2023-09-06T11:39:47.417Z,32.89
2023-09-06T11:42:55.473Z,32.96
2023-09-06T11:46:05.031Z,33.01
2023-09-06T11:49:08.037Z,31.62
2023-09-06T11:52:14.711Z,31.38
2023-09-06T11:55:18.809Z,31.19
2023-09-06T11:58:23.039Z,31.15
2023-09-06T12:01:26.101Z,31.14
2023-09-06T12:04:30.998Z,31.13
2023-09-06T12:07:33.673Z,31.13
2023-09-06T12:10:36.704Z,31.39
2023-09-06T12:13:39.832Z,30.91
2023-09-06T12:16:43.055Z,30.77
2023-09-06T12:19:45.938Z,30.49
2023-09-06T12:22:48.662Z,30.55
2023-09-06T12:25:51.101Z,29.97
2023-09-06T12:28:53.793Z,29.47
2023-09-06T12:31:56.348Z,28.84
2023-09-06T12:34:59.177Z,29.07
2023-09-06T12:38:01.500Z,29.23
2023-09-06T12:41:06.133Z,29.27
2023-09-06T12:44:08.612Z,28.91
2023-09-06T12:47:17.706Z,28.47
2023-09-06T12:50:21.161Z,28.94
2023-09-06T12:53:24.388Z,28.74
2023-09-06T12:56:26.900Z,28.81
2023-09-06T12:59:29.668Z,27.67
2023-09-06T13:02:34.889Z,27.69
2023-09-06T13:05:41.366Z,27.40
2023-09-06T13:08:45.740Z,28.09
2023-09-06T13:11:48.600Z,28.19
2023-09-06T13:14:51.184Z,27.98
2023-09-06T13:17:53.983Z,27.99
2023-09-06T13:20:58.294Z,27.39
2023-09-06T13:24:05.246Z,26.85
2023-09-06T13:27:08.133Z,26.75
2023-09-06T13:30:11.698Z,27.37
2023-09-06T13:33:14.161Z,26.05
2023-09-06T13:36:17.844Z,25.82
2023-09-06T13:39:22.118Z,25.56
2023-09-06T13:42:25.172Z,26.19
2023-09-06T13:45:29.429Z,26.16
2023-09-06T13:48:33.456Z,26.85
2023-09-06T13:51:36.881Z,27.17
2023-09-06T13:54:39.681Z,26.82
2023-09-06T13:57:42.108Z,27.22
2023-09-06T14:00:44.978Z,26.78
2023-09-06T14:03:47.727Z,27.04
2023-09-06T14:06:50.520Z,27.33
2023-09-06T14:09:53.281Z,27.28
2023-09-06T14:12:55.692Z,26.83
2023-09-06T14:15:59.575Z,27.56
2023-09-06T14:19:02.110Z,27.27
2023-09-06T14:22:10.680Z,27.62
2023-09-06T14:25:13.326Z,27.85
2023-09-06T14:28:16.004Z,27.95
2023-09-06T14:31:18.511Z,28.53
2023-09-06T14:34:21.278Z,29.12
2023-09-06T14:37:23.693Z,29.37
2023-09-06T14:40:26.398Z,29.67
2023-09-06T14:43:29.338Z,29.37
2023-09-06T14:46:32.591Z,29.55
2023-09-06T14:49:35.129Z,30.15
2023-09-06T14:52:37.918Z,30.68
2023-09-06T14:55:40.363Z,31.00
2023-09-06T14:58:44.120Z,30.64
2023-09-06T15:01:46.757Z,31.04
2023-09-06T15:04:49.670Z,30.92
2023-09-06T15:07:52.051Z,30.75
2023-09-06T15:10:54.793Z,30.92
2023-09-06T15:13:57.251Z,31.37
2023-09-06T15:16:59.948Z,31.79
2023-09-06T15:20:11.891Z,31.91
2023-09-06T15:23:15.283Z,32.02
2023-09-06T15:26:19.150Z,32.16
2023-09-06T15:29:21.989Z,32.11
2023-09-06T15:32:25.808Z,31.98
2023-09-06T15:35:29.601Z,32.74
2023-09-06T15:38:32.197Z,32.41
2023-09-06T15:41:34.849Z,32.34
2023-09-06T15:44:37.982Z,32.40
2023-09-06T15:47:42.096Z,32.94
2023-09-06T15:50:44.798Z,32.91
2023-09-06T15:53:47.809Z,33.00
2023-09-06T15:56:51.062Z,32.84
2023-09-06T15:59:53.796Z,33.12
2023-09-06T16:02:56.600Z,32.99
2023-09-06T16:05:59.339Z,33.58
2023-09-06T16:09:02.723Z,33.19
2023-09-06T16:12:06.005Z,33.51
2023-09-06T16:15:09.994Z,33.31
2023-09-06T16:18:13.674Z,33.60
2023-09-06T16:21:16.137Z,33.85
2023-09-06T16:24:19.700Z,34.63
2023-09-06T16:27:23.208Z,34.07
2023-09-06T16:30:26.887Z,34.05
2023-09-06T16:33:33.545Z,33.91
2023-09-06T16:36:36.403Z,33.70
2023-09-06T16:39:41.170Z,33.90
2023-09-06T16:42:44.283Z,34.13
2023-09-06T16:45:47.730Z,34.25
2023-09-06T16:48:50.589Z,34.39
2023-09-06T16:51:53.243Z,34.61
2023-09-06T16:54:57.254Z,34.95
2023-09-06T16:57:59.860Z,35.12
2023-09-06T17:01:02.614Z,35.23
2023-09-06T17:04:06.250Z,35.34
2023-09-06T17:07:09.246Z,35.64
2023-09-06T17:10:11.910Z,35.99
2023-09-06T17:13:15.113Z,36.13
2023-09-06T17:16:21.622Z,36.45
2023-09-06T17:19:25.173Z,36.68
2023-09-06T17:22:27.585Z,37.05
2023-09-06T17:25:31.658Z,37.42
2023-09-06T17:28:37.459Z,37.75
2023-09-06T17:31:40.226Z,38.08
2023-09-06T17:34:42.748Z,38.43
2023-09-06T17:37:45.602Z,38.68
2023-09-06T17:40:53.277Z,38.92
2023-09-06T17:43:56.163Z,39.21
2023-09-06T17:47:02.748Z,39.48
2023-09-06T17:50:10.614Z,40.09
2023-09-06T17:53:18.546Z,40.42
2023-09-06T17:56:25.455Z,40.88
2023-09-06T17:59:28.904Z,41.23
2023-09-06T18:02:33.770Z,41.39
2023-09-06T18:05:39.282Z,41.90
2023-09-06T18:08:43.300Z,41.93
2023-09-06T18:11:47.090Z,42.32
2023-09-06T18:14:50.797Z,42.75
2023-09-06T18:17:53.707Z,43.21
2023-09-06T18:20:57.102Z,43.13
2023-09-06T18:24:04.458Z,43.38
2023-09-06T18:27:08.550Z,44.03
2023-09-06T18:30:11.967Z,44.45
2023-09-06T18:33:15.740Z,45.31
2023-09-06T18:36:18.697Z,45.50
2023-09-06T18:39:21.149Z,45.58
2023-09-06T18:42:23.851Z,45.56
2023-09-06T18:45:27.326Z,45.11
2023-09-06T18:48:30.391Z,45.80
2023-09-06T18:51:33.043Z,46.67
2023-09-06T18:54:37.488Z,47.02
2023-09-06T18:57:51.325Z,47.28
2023-09-06T19:01:02.934Z,47.96
2023-09-06T19:04:05.783Z,48.10
2023-09-06T19:07:08.557Z,48.29
2023-09-06T19:10:15.768Z,48.35
2023-09-06T19:13:19.493Z,49.22
2023-09-06T19:16:25.768Z,49.29
2023-09-06T19:19:33.830Z,49.75
2023-09-06T19:22:36.219Z,50.25
2023-09-06T19:25:44.185Z,50.49
2023-09-06T19:28:46.574Z,50.63
2023-09-06T19:31:51.890Z,50.80
2023-09-06T19:34:54.350Z,51.00
2023-09-06T19:37:57.135Z,51.55
2023-09-06T19:41:00.796Z,51.73
2023-09-06T19:44:03.727Z,51.73
2023-09-06T19:47:06.386Z,51.81
2023-09-06T19:50:09.410Z,51.91
2023-09-06T19:53:11.824Z,52.38
2023-09-06T19:56:18.194Z,52.48
2023-09-06T19:59:20.718Z,52.77
2023-09-06T20:02:23.733Z,53.35
2023-09-06T20:05:26.846Z,53.70
2023-09-06T20:08:29.458Z,53.84
2023-09-06T20:11:33.266Z,54.25
2023-09-06T20:14:35.701Z,54.69
2023-09-06T20:17:38.483Z,55.19
2023-09-06T20:20:41.352Z,55.68
2023-09-06T20:23:44.724Z,56.40
2023-09-06T20:26:47.193Z,56.67
2023-09-06T20:29:50.032Z,57.03
2023-09-06T20:32:52.587Z,56.95
2023-09-06T20:35:58.537Z,57.19
2023-09-06T20:39:01.247Z,57.09
2023-09-06T20:42:06.354Z,56.89
2023-09-06T20:45:09.061Z,56.93
2023-09-06T20:48:12.904Z,57.17
2023-09-06T20:51:15.585Z,56.89
2023-09-06T20:54:18.331Z,56.57
2023-09-06T20:57:20.824Z,56.25
2023-09-06T21:00:23.891Z,56.18
2023-09-06T21:03:26.518Z,55.95
2023-09-06T21:06:29.176Z,55.57
2023-09-06T21:09:31.561Z,56.75
2023-09-06T21:12:36.319Z,57.96
2023-09-06T21:15:39.047Z,57.88
2023-09-06T21:18:41.917Z,58.40
2023-09-06T21:21:44.351Z,57.63
2023-09-06T21:24:47.058Z,57.25
2023-09-06T21:27:49.539Z,56.68
2023-09-06T21:30:52.245Z,56.42
2023-09-06T21:33:54.713Z,56.27
2023-09-06T21:36:57.537Z,56.61
2023-09-06T21:40:00.696Z,56.74
2023-09-06T21:43:16.101Z,57.33
2023-09-06T21:46:20.565Z,57.14
2023-09-06T21:49:23.321Z,57.85
2023-09-06T21:52:25.741Z,58.29
2023-09-06T21:55:28.504Z,58.59
2023-09-06T21:58:34.621Z,58.95
2023-09-06T22:01:51.448Z,59.95
2023-09-06T22:05:12.172Z,60.72
2023-09-06T22:08:33.225Z,60.70
2023-09-06T22:11:54.584Z,60.92
2023-09-06T22:15:06.023Z,61.30
2023-09-06T22:18:08.485Z,61.90
2023-09-06T22:21:11.136Z,62.10
2023-09-06T22:24:13.821Z,62.17
2023-09-06T22:27:16.682Z,62.46
2023-09-06T22:30:19.432Z,62.48
2023-09-06T22:33:22.207Z,61.96
2023-09-06T22:36:25.358Z,61.81
2023-09-06T22:39:28.090Z,61.81
2023-09-06T22:42:30.457Z,61.98
2023-09-06T22:45:33.125Z,62.14
2023-09-06T22:48:53.306Z,61.91
2023-09-06T22:51:57.027Z,62.33
2023-09-06T22:54:59.573Z,62.60
2023-09-06T22:58:02.762Z,62.93
2023-09-06T23:01:08.724Z,62.73
2023-09-06T23:04:12.424Z,63.49
2023-09-06T23:07:16.461Z,63.34
2023-09-06T23:10:20.944Z,62.06
2023-09-06T23:13:23.831Z,63.08
2023-09-06T23:16:26.611Z,62.85
2023-09-06T23:19:33.577Z,63.85
2023-09-06T23:22:42.097Z,63.78
2023-09-06T23:25:51.353Z,63.59
2023-09-06T23:28:55.095Z,64.15
2023-09-06T23:32:00.454Z,64.46
2023-09-06T23:35:07.732Z,64.58
2023-09-06T23:38:10.817Z,65.33
2023-09-06T23:41:17.511Z,66.22
2023-09-06T23:44:20.588Z,66.58
2023-09-06T23:47:23.408Z,66.71
2023-09-06T23:50:28.017Z,66.60
2023-09-06T23:53:30.681Z,66.54
2023-09-06T23:56:32.993Z,67.30
2023-09-06T23:59:35.633Z,67.93
